sensor_id;sensor_type;location;lat;lon;timestamp;P1;durP1;ratioP1;P2;durP2;ratioP2
24650;SDS011;12783;48.824;8.662;2023-05-21T00:00:08;17.70;;;12.35;;
24650;SDS011;12783;48.824;8.662;2023-05-21T00:02:36;23.88;;;14.07;;
24650;SDS011;12783;48.824;8.662;2023-05-21T00:05:04;19.55;;;13.57;;
24650;SDS011;12783;48.824;8.662;2023-05-21T00:07:40;19.65;;;14.32;;
24650;SDS011;12783;48.824;8.662;2023-05-21T00:10:07;21.15;;;13.60;;
24650;SDS011;12783;48.824;8.662;2023-05-21T00:12:35;17.63;;;11.82;;
24650;SDS011;12783;48.824;8.662;2023-05-21T00:15:02;18.88;;;13.07;;
24650;SDS011;12783;48.824;8.662;2023-05-21T00:17:30;17.98;;;12.20;;
24650;SDS011;12783;48.824;8.662;2023-05-21T00:19:57;16.90;;;12.95;;
24650;SDS011;12783;48.824;8.662;2023-05-21T00:22:25;18.33;;;12.77;;
24650;SDS011;12783;48.824;8.662;2023-05-21T00:24:52;15.90;;;12.30;;
24650;SDS011;12783;48.824;8.662;2023-05-21T00:27:18;20.13;;;12.60;;
24650;SDS011;12783;48.824;8.662;2023-05-21T00:29:45;17.92;;;12.65;;
24650;SDS011;12783;48.824;8.662;2023-05-21T00:32:12;16.58;;;13.23;;
24650;SDS011;12783;48.824;8.662;2023-05-21T00:34:40;17.80;;;13.30;;
24650;SDS011;12783;48.824;8.662;2023-05-21T00:37:07;18.80;;;12.55;;
24650;SDS011;12783;48.824;8.662;2023-05-21T00:39:35;18.67;;;12.88;;
24650;SDS011;12783;48.824;8.662;2023-05-21T00:42:02;18.42;;;12.88;;
24650;SDS011;12783;48.824;8.662;2023-05-21T00:44:29;17.63;;;12.30;;
24650;SDS011;12783;48.824;8.662;2023-05-21T00:47:02;16.67;;;12.48;;
24650;SDS011;12783;48.824;8.662;2023-05-21T00:49:32;18.38;;;13.15;;
24650;SDS011;12783;48.824;8.662;2023-05-21T00:51:59;18.13;;;13.63;;
24650;SDS011;12783;48.824;8.662;2023-05-21T00:54:26;20.02;;;14.68;;
24650;SDS011;12783;48.824;8.662;2023-05-21T00:56:54;19.17;;;13.55;;
24650;SDS011;12783;48.824;8.662;2023-05-21T00:59:22;21.00;;;13.98;;
24650;SDS011;12783;48.824;8.662;2023-05-21T01:01:50;17.60;;;13.30;;
24650;SDS011;12783;48.824;8.662;2023-05-21T01:04:24;18.52;;;13.93;;
24650;SDS011;12783;48.824;8.662;2023-05-21T01:06:51;21.67;;;14.40;;
24650;SDS011;12783;48.824;8.662;2023-05-21T01:09:18;19.73;;;13.20;;
24650;SDS011;12783;48.824;8.662;2023-05-21T01:11:46;20.40;;;13.63;;
24650;SDS011;12783;48.824;8.662;2023-05-21T01:14:16;24.23;;;13.35;;
24650;SDS011;12783;48.824;8.662;2023-05-21T01:16:46;20.50;;;13.82;;
24650;SDS011;12783;48.824;8.662;2023-05-21T01:19:16;19.50;;;13.82;;
24650;SDS011;12783;48.824;8.662;2023-05-21T01:21:50;19.65;;;14.23;;
24650;SDS011;12783;48.824;8.662;2023-05-21T01:24:21;19.33;;;13.38;;
24650;SDS011;12783;48.824;8.662;2023-05-21T01:26:48;19.10;;;14.10;;
24650;SDS011;12783;48.824;8.662;2023-05-21T01:29:15;19.80;;;14.38;;
24650;SDS011;12783;48.824;8.662;2023-05-21T01:34:49;22.92;;;13.93;;
24650;SDS011;12783;48.824;8.662;2023-05-21T01:40:09;20.27;;;14.10;;
24650;SDS011;12783;48.824;8.662;2023-05-21T01:42:45;20.13;;;13.73;;
24650;SDS011;12783;48.824;8.662;2023-05-21T01:45:13;19.77;;;14.43;;
24650;SDS011;12783;48.824;8.662;2023-05-21T01:47:43;17.55;;;13.68;;
24650;SDS011;12783;48.824;8.662;2023-05-21T01:50:14;18.63;;;13.43;;
24650;SDS011;12783;48.824;8.662;2023-05-21T01:52:55;19.55;;;13.77;;
24650;SDS011;12783;48.824;8.662;2023-05-21T01:55:23;23.92;;;13.77;;
24650;SDS011;12783;48.824;8.662;2023-05-21T01:57:53;18.73;;;14.30;;
24650;SDS011;12783;48.824;8.662;2023-05-21T02:00:22;19.83;;;14.10;;
24650;SDS011;12783;48.824;8.662;2023-05-21T02:02:52;19.70;;;14.10;;
24650;SDS011;12783;48.824;8.662;2023-05-21T02:05:19;19.77;;;14.50;;
24650;SDS011;12783;48.824;8.662;2023-05-21T02:07:46;21.55;;;14.43;;
24650;SDS011;12783;48.824;8.662;2023-05-21T02:10:15;20.35;;;14.45;;
24650;SDS011;12783;48.824;8.662;2023-05-21T02:12:42;21.33;;;13.32;;
24650;SDS011;12783;48.824;8.662;2023-05-21T02:15:09;25.73;;;14.52;;
24650;SDS011;12783;48.824;8.662;2023-05-21T02:17:36;25.92;;;17.90;;
24650;SDS011;12783;48.824;8.662;2023-05-21T02:20:04;21.15;;;15.05;;
24650;SDS011;12783;48.824;8.662;2023-05-21T02:22:40;20.80;;;14.80;;
24650;SDS011;12783;48.824;8.662;2023-05-21T02:25:09;23.52;;;14.10;;
24650;SDS011;12783;48.824;8.662;2023-05-21T02:27:38;20.20;;;15.20;;
24650;SDS011;12783;48.824;8.662;2023-05-21T02:30:06;22.42;;;14.75;;
24650;SDS011;12783;48.824;8.662;2023-05-21T02:32:35;20.55;;;14.68;;
24650;SDS011;12783;48.824;8.662;2023-05-21T02:35:04;21.70;;;15.63;;
24650;SDS011;12783;48.824;8.662;2023-05-21T02:37:32;23.23;;;15.18;;
24650;SDS011;12783;48.824;8.662;2023-05-21T02:40:02;19.92;;;14.73;;
24650;SDS011;12783;48.824;8.662;2023-05-21T02:42:35;25.77;;;16.83;;
24650;SDS011;12783;48.824;8.662;2023-05-21T02:45:08;26.80;;;16.95;;
24650;SDS011;12783;48.824;8.662;2023-05-21T02:47:37;23.65;;;15.63;;
24650;SDS011;12783;48.824;8.662;2023-05-21T02:50:05;21.45;;;15.20;;
24650;SDS011;12783;48.824;8.662;2023-05-21T02:52:34;22.65;;;15.77;;
24650;SDS011;12783;48.824;8.662;2023-05-21T02:55:01;28.63;;;16.27;;
24650;SDS011;12783;48.824;8.662;2023-05-21T02:57:28;24.67;;;16.85;;
24650;SDS011;12783;48.824;8.662;2023-05-21T02:59:55;23.52;;;16.02;;
24650;SDS011;12783;48.824;8.662;2023-05-21T03:02:22;22.42;;;15.63;;
24650;SDS011;12783;48.824;8.662;2023-05-21T03:04:49;23.23;;;15.73;;
24650;SDS011;12783;48.824;8.662;2023-05-21T03:07:16;21.77;;;15.77;;
24650;SDS011;12783;48.824;8.662;2023-05-21T03:09:45;23.35;;;16.50;;
24650;SDS011;12783;48.824;8.662;2023-05-21T03:12:12;22.15;;;15.45;;
24650;SDS011;12783;48.824;8.662;2023-05-21T03:14:39;24.80;;;14.82;;
24650;SDS011;12783;48.824;8.662;2023-05-21T03:17:11;22.65;;;15.20;;
24650;SDS011;12783;48.824;8.662;2023-05-21T03:19:42;21.63;;;16.13;;
24650;SDS011;12783;48.824;8.662;2023-05-21T03:22:09;23.05;;;16.02;;
24650;SDS011;12783;48.824;8.662;2023-05-21T03:24:37;22.17;;;14.93;;
24650;SDS011;12783;48.824;8.662;2023-05-21T03:27:04;21.80;;;15.20;;
24650;SDS011;12783;48.824;8.662;2023-05-21T03:29:32;23.83;;;15.98;;
24650;SDS011;12783;48.824;8.662;2023-05-21T03:31:59;25.40;;;16.35;;
24650;SDS011;12783;48.824;8.662;2023-05-21T03:34:27;23.65;;;17.20;;
24650;SDS011;12783;48.824;8.662;2023-05-21T03:36:54;23.05;;;15.50;;
24650;SDS011;12783;48.824;8.662;2023-05-21T03:39:21;26.10;;;16.38;;
24650;SDS011;12783;48.824;8.662;2023-05-21T03:41:47;23.67;;;15.27;;
24650;SDS011;12783;48.824;8.662;2023-05-21T03:44:14;24.98;;;15.27;;
24650;SDS011;12783;48.824;8.662;2023-05-21T03:46:41;21.42;;;15.35;;
24650;SDS011;12783;48.824;8.662;2023-05-21T03:49:10;24.23;;;15.48;;
24650;SDS011;12783;48.824;8.662;2023-05-21T03:51:37;24.35;;;15.60;;
24650;SDS011;12783;48.824;8.662;2023-05-21T03:54:04;23.85;;;16.48;;
24650;SDS011;12783;48.824;8.662;2023-05-21T03:56:31;20.30;;;14.68;;
24650;SDS011;12783;48.824;8.662;2023-05-21T03:58:58;21.50;;;15.15;;
24650;SDS011;12783;48.824;8.662;2023-05-21T04:01:25;22.48;;;15.02;;
24650;SDS011;12783;48.824;8.662;2023-05-21T04:03:53;21.80;;;15.32;;
24650;SDS011;12783;48.824;8.662;2023-05-21T04:06:21;28.35;;;16.17;;
24650;SDS011;12783;48.824;8.662;2023-05-21T04:08:48;24.42;;;15.85;;
24650;SDS011;12783;48.824;8.662;2023-05-21T04:11:15;24.27;;;15.00;;
24650;SDS011;12783;48.824;8.662;2023-05-21T04:13:42;22.67;;;15.23;;
24650;SDS011;12783;48.824;8.662;2023-05-21T04:16:09;21.42;;;15.40;;
24650;SDS011;12783;48.824;8.662;2023-05-21T04:18:36;22.00;;;14.57;;
24650;SDS011;12783;48.824;8.662;2023-05-21T04:21:03;20.45;;;14.73;;
24650;SDS011;12783;48.824;8.662;2023-05-21T04:23:30;23.73;;;15.20;;
24650;SDS011;12783;48.824;8.662;2023-05-21T04:25:57;20.45;;;14.43;;
24650;SDS011;12783;48.824;8.662;2023-05-21T04:28:24;23.88;;;15.15;;
24650;SDS011;12783;48.824;8.662;2023-05-21T04:30:54;20.00;;;14.52;;
24650;SDS011;12783;48.824;8.662;2023-05-21T04:33:21;20.38;;;14.65;;
24650;SDS011;12783;48.824;8.662;2023-05-21T04:35:50;21.92;;;14.93;;
24650;SDS011;12783;48.824;8.662;2023-05-21T04:38:17;22.48;;;15.02;;
24650;SDS011;12783;48.824;8.662;2023-05-21T04:40:48;20.25;;;14.00;;
24650;SDS011;12783;48.824;8.662;2023-05-21T04:43:16;21.13;;;14.13;;
24650;SDS011;12783;48.824;8.662;2023-05-21T04:45:54;18.13;;;13.55;;
24650;SDS011;12783;48.824;8.662;2023-05-21T04:48:21;22.30;;;14.60;;
24650;SDS011;12783;48.824;8.662;2023-05-21T04:50:50;20.35;;;14.18;;
24650;SDS011;12783;48.824;8.662;2023-05-21T04:53:18;20.60;;;14.27;;
24650;SDS011;12783;48.824;8.662;2023-05-21T04:55:45;21.88;;;14.70;;
24650;SDS011;12783;48.824;8.662;2023-05-21T04:58:13;21.67;;;14.18;;
24650;SDS011;12783;48.824;8.662;2023-05-21T05:00:42;21.55;;;15.00;;
24650;SDS011;12783;48.824;8.662;2023-05-21T05:03:12;21.90;;;15.40;;
24650;SDS011;12783;48.824;8.662;2023-05-21T05:05:39;22.38;;;15.90;;
24650;SDS011;12783;48.824;8.662;2023-05-21T05:08:06;25.45;;;15.77;;
24650;SDS011;12783;48.824;8.662;2023-05-21T05:10:33;24.60;;;15.45;;
24650;SDS011;12783;48.824;8.662;2023-05-21T05:13:01;19.55;;;14.00;;
24650;SDS011;12783;48.824;8.662;2023-05-21T05:15:28;24.13;;;15.23;;
24650;SDS011;12783;48.824;8.662;2023-05-21T05:17:55;23.58;;;16.27;;
24650;SDS011;12783;48.824;8.662;2023-05-21T05:20:22;23.08;;;15.82;;
24650;SDS011;12783;48.824;8.662;2023-05-21T05:22:49;23.63;;;15.63;;
24650;SDS011;12783;48.824;8.662;2023-05-21T05:25:16;20.67;;;14.90;;
24650;SDS011;12783;48.824;8.662;2023-05-21T05:27:43;20.58;;;14.50;;
24650;SDS011;12783;48.824;8.662;2023-05-21T05:30:10;20.20;;;14.50;;
24650;SDS011;12783;48.824;8.662;2023-05-21T05:32:37;23.63;;;14.73;;
24650;SDS011;12783;48.824;8.662;2023-05-21T05:35:04;23.08;;;16.25;;
24650;SDS011;12783;48.824;8.662;2023-05-21T05:37:32;24.20;;;15.27;;
24650;SDS011;12783;48.824;8.662;2023-05-21T05:39:59;24.83;;;16.33;;
24650;SDS011;12783;48.824;8.662;2023-05-21T05:42:26;18.42;;;13.73;;
24650;SDS011;12783;48.824;8.662;2023-05-21T05:44:53;21.23;;;14.80;;
24650;SDS011;12783;48.824;8.662;2023-05-21T05:47:21;20.55;;;15.10;;
24650;SDS011;12783;48.824;8.662;2023-05-21T05:49:47;20.48;;;14.23;;
24650;SDS011;12783;48.824;8.662;2023-05-21T05:52:14;21.00;;;14.27;;
24650;SDS011;12783;48.824;8.662;2023-05-21T05:54:41;22.15;;;15.25;;
24650;SDS011;12783;48.824;8.662;2023-05-21T05:57:08;17.80;;;13.20;;
24650;SDS011;12783;48.824;8.662;2023-05-21T05:59:35;21.10;;;14.02;;
24650;SDS011;12783;48.824;8.662;2023-05-21T06:02:02;18.80;;;13.32;;
24650;SDS011;12783;48.824;8.662;2023-05-21T06:04:29;20.33;;;13.68;;
24650;SDS011;12783;48.824;8.662;2023-05-21T06:06:57;17.20;;;13.15;;
24650;SDS011;12783;48.824;8.662;2023-05-21T06:09:24;16.50;;;12.50;;
24650;SDS011;12783;48.824;8.662;2023-05-21T06:11:51;20.23;;;13.20;;
24650;SDS011;12783;48.824;8.662;2023-05-21T06:14:18;16.17;;;12.27;;
24650;SDS011;12783;48.824;8.662;2023-05-21T06:16:45;16.58;;;12.68;;
24650;SDS011;12783;48.824;8.662;2023-05-21T06:19:12;18.63;;;12.93;;
24650;SDS011;12783;48.824;8.662;2023-05-21T06:21:39;17.55;;;13.30;;
24650;SDS011;12783;48.824;8.662;2023-05-21T06:24:06;17.38;;;12.80;;
24650;SDS011;12783;48.824;8.662;2023-05-21T06:26:33;18.20;;;12.45;;
24650;SDS011;12783;48.824;8.662;2023-05-21T06:29:00;18.83;;;12.98;;
24650;SDS011;12783;48.824;8.662;2023-05-21T06:31:27;19.02;;;13.48;;
24650;SDS011;12783;48.824;8.662;2023-05-21T06:33:54;20.17;;;13.18;;
24650;SDS011;12783;48.824;8.662;2023-05-21T06:36:22;20.08;;;13.90;;
24650;SDS011;12783;48.824;8.662;2023-05-21T06:38:51;20.40;;;14.35;;
24650;SDS011;12783;48.824;8.662;2023-05-21T06:41:18;18.50;;;14.43;;
24650;SDS011;12783;48.824;8.662;2023-05-21T06:43:44;22.48;;;15.57;;
24650;SDS011;12783;48.824;8.662;2023-05-21T06:46:12;19.67;;;12.93;;
24650;SDS011;12783;48.824;8.662;2023-05-21T06:48:39;17.95;;;13.27;;
24650;SDS011;12783;48.824;8.662;2023-05-21T06:51:06;18.38;;;12.80;;
24650;SDS011;12783;48.824;8.662;2023-05-21T06:53:33;17.50;;;12.25;;
24650;SDS011;12783;48.824;8.662;2023-05-21T06:56:00;18.45;;;12.80;;
24650;SDS011;12783;48.824;8.662;2023-05-21T06:58:27;17.00;;;12.13;;
24650;SDS011;12783;48.824;8.662;2023-05-21T07:00:57;18.20;;;11.93;;
24650;SDS011;12783;48.824;8.662;2023-05-21T07:03:24;17.42;;;11.27;;
24650;SDS011;12783;48.824;8.662;2023-05-21T07:05:52;16.42;;;12.65;;
24650;SDS011;12783;48.824;8.662;2023-05-21T07:08:19;18.65;;;12.02;;
24650;SDS011;12783;48.824;8.662;2023-05-21T07:10:47;15.65;;;11.55;;
24650;SDS011;12783;48.824;8.662;2023-05-21T07:13:14;14.07;;;10.70;;
24650;SDS011;12783;48.824;8.662;2023-05-21T07:15:41;13.98;;;11.10;;
24650;SDS011;12783;48.824;8.662;2023-05-21T07:18:08;14.15;;;11.13;;
24650;SDS011;12783;48.824;8.662;2023-05-21T07:20:35;18.88;;;13.25;;
24650;SDS011;12783;48.824;8.662;2023-05-21T07:23:02;18.10;;;12.52;;
24650;SDS011;12783;48.824;8.662;2023-05-21T07:25:29;17.15;;;12.20;;
24650;SDS011;12783;48.824;8.662;2023-05-21T07:27:56;14.82;;;12.43;;
24650;SDS011;12783;48.824;8.662;2023-05-21T07:30:23;15.02;;;11.13;;
24650;SDS011;12783;48.824;8.662;2023-05-21T07:32:50;18.88;;;12.48;;
24650;SDS011;12783;48.824;8.662;2023-05-21T07:35:17;17.27;;;11.63;;
24650;SDS011;12783;48.824;8.662;2023-05-21T07:37:44;21.77;;;12.95;;
24650;SDS011;12783;48.824;8.662;2023-05-21T07:40:13;15.90;;;11.85;;
24650;SDS011;12783;48.824;8.662;2023-05-21T07:42:40;17.70;;;12.80;;
24650;SDS011;12783;48.824;8.662;2023-05-21T07:45:07;15.88;;;12.15;;
24650;SDS011;12783;48.824;8.662;2023-05-21T07:47:34;17.40;;;12.23;;
24650;SDS011;12783;48.824;8.662;2023-05-21T07:50:01;16.13;;;12.10;;
24650;SDS011;12783;48.824;8.662;2023-05-21T07:52:28;17.90;;;11.90;;
24650;SDS011;12783;48.824;8.662;2023-05-21T07:54:55;17.35;;;11.90;;
24650;SDS011;12783;48.824;8.662;2023-05-21T07:57:22;18.30;;;12.40;;
24650;SDS011;12783;48.824;8.662;2023-05-21T07:59:48;21.40;;;12.57;;
24650;SDS011;12783;48.824;8.662;2023-05-21T08:02:16;13.40;;;10.98;;
24650;SDS011;12783;48.824;8.662;2023-05-21T08:04:43;16.33;;;11.48;;
24650;SDS011;12783;48.824;8.662;2023-05-21T08:07:10;15.13;;;11.38;;
24650;SDS011;12783;48.824;8.662;2023-05-21T08:09:38;19.05;;;11.48;;
24650;SDS011;12783;48.824;8.662;2023-05-21T08:12:05;14.15;;;11.40;;
24650;SDS011;12783;48.824;8.662;2023-05-21T08:14:32;18.42;;;12.70;;
24650;SDS011;12783;48.824;8.662;2023-05-21T08:16:59;17.83;;;13.20;;
24650;SDS011;12783;48.824;8.662;2023-05-21T08:19:26;17.92;;;13.02;;
24650;SDS011;12783;48.824;8.662;2023-05-21T08:21:53;19.55;;;13.27;;
24650;SDS011;12783;48.824;8.662;2023-05-21T08:24:20;20.50;;;13.70;;
24650;SDS011;12783;48.824;8.662;2023-05-21T08:26:46;19.95;;;13.93;;
24650;SDS011;12783;48.824;8.662;2023-05-21T08:29:15;18.45;;;13.63;;
24650;SDS011;12783;48.824;8.662;2023-05-21T08:31:42;20.23;;;13.55;;
24650;SDS011;12783;48.824;8.662;2023-05-21T08:34:09;18.48;;;14.15;;
24650;SDS011;12783;48.824;8.662;2023-05-21T08:36:36;17.40;;;13.20;;
24650;SDS011;12783;48.824;8.662;2023-05-21T08:39:03;17.33;;;13.35;;
24650;SDS011;12783;48.824;8.662;2023-05-21T08:41:30;18.50;;;14.18;;
24650;SDS011;12783;48.824;8.662;2023-05-21T08:44:00;16.67;;;13.15;;
24650;SDS011;12783;48.824;8.662;2023-05-21T08:46:28;17.85;;;14.32;;
24650;SDS011;12783;48.824;8.662;2023-05-21T08:49:01;20.27;;;14.97;;
24650;SDS011;12783;48.824;8.662;2023-05-21T08:51:29;18.33;;;14.05;;
24650;SDS011;12783;48.824;8.662;2023-05-21T08:53:56;20.92;;;14.80;;
24650;SDS011;12783;48.824;8.662;2023-05-21T08:56:26;19.85;;;13.93;;
24650;SDS011;12783;48.824;8.662;2023-05-21T08:58:55;23.45;;;13.60;;
24650;SDS011;12783;48.824;8.662;2023-05-21T09:01:24;19.80;;;13.77;;
24650;SDS011;12783;48.824;8.662;2023-05-21T09:03:52;17.40;;;13.15;;
24650;SDS011;12783;48.824;8.662;2023-05-21T09:06:33;19.73;;;14.15;;
24650;SDS011;12783;48.824;8.662;2023-05-21T09:09:03;19.52;;;14.35;;
24650;SDS011;12783;48.824;8.662;2023-05-21T09:11:59;17.75;;;13.52;;
24650;SDS011;12783;48.824;8.662;2023-05-21T09:14:26;18.60;;;13.40;;
24650;SDS011;12783;48.824;8.662;2023-05-21T09:16:54;19.08;;;13.57;;
24650;SDS011;12783;48.824;8.662;2023-05-21T09:19:20;15.45;;;12.80;;
24650;SDS011;12783;48.824;8.662;2023-05-21T09:21:49;18.20;;;13.10;;
24650;SDS011;12783;48.824;8.662;2023-05-21T09:24:20;18.38;;;12.63;;
24650;SDS011;12783;48.824;8.662;2023-05-21T09:26:50;17.70;;;13.48;;
24650;SDS011;12783;48.824;8.662;2023-05-21T09:29:17;16.05;;;12.25;;
24650;SDS011;12783;48.824;8.662;2023-05-21T09:31:44;14.75;;;11.55;;
24650;SDS011;12783;48.824;8.662;2023-05-21T09:34:12;17.33;;;11.98;;
24650;SDS011;12783;48.824;8.662;2023-05-21T09:36:41;15.98;;;12.55;;
24650;SDS011;12783;48.824;8.662;2023-05-21T09:39:09;17.45;;;12.50;;
24650;SDS011;12783;48.824;8.662;2023-05-21T09:41:41;18.55;;;12.90;;
24650;SDS011;12783;48.824;8.662;2023-05-21T09:44:08;15.50;;;11.63;;
24650;SDS011;12783;48.824;8.662;2023-05-21T09:46:36;15.38;;;11.77;;
24650;SDS011;12783;48.824;8.662;2023-05-21T09:49:05;15.50;;;11.93;;
24650;SDS011;12783;48.824;8.662;2023-05-21T09:51:47;15.43;;;12.45;;
24650;SDS011;12783;48.824;8.662;2023-05-21T09:54:13;19.33;;;12.43;;
24650;SDS011;12783;48.824;8.662;2023-05-21T09:56:40;18.63;;;11.45;;
24650;SDS011;12783;48.824;8.662;2023-05-21T09:59:07;16.65;;;12.68;;
24650;SDS011;12783;48.824;8.662;2023-05-21T10:01:34;17.05;;;12.25;;
24650;SDS011;12783;48.824;8.662;2023-05-21T10:04:06;14.57;;;12.18;;
24650;SDS011;12783;48.824;8.662;2023-05-21T10:06:41;18.92;;;11.40;;
24650;SDS011;12783;48.824;8.662;2023-05-21T10:09:09;17.60;;;13.32;;
24650;SDS011;12783;48.824;8.662;2023-05-21T10:11:37;14.88;;;11.55;;
24650;SDS011;12783;48.824;8.662;2023-05-21T10:14:13;20.60;;;12.10;;
24650;SDS011;12783;48.824;8.662;2023-05-21T10:16:45;14.75;;;12.25;;
24650;SDS011;12783;48.824;8.662;2023-05-21T10:19:14;14.32;;;10.98;;
24650;SDS011;12783;48.824;8.662;2023-05-21T10:21:42;14.25;;;11.50;;
24650;SDS011;12783;48.824;8.662;2023-05-21T10:24:10;16.05;;;12.57;;
24650;SDS011;12783;48.824;8.662;2023-05-21T10:26:37;15.43;;;12.32;;
24650;SDS011;12783;48.824;8.662;2023-05-21T10:29:06;17.60;;;12.20;;
24650;SDS011;12783;48.824;8.662;2023-05-21T10:31:34;14.88;;;11.20;;
24650;SDS011;12783;48.824;8.662;2023-05-21T10:34:02;14.00;;;10.57;;
24650;SDS011;12783;48.824;8.662;2023-05-21T10:36:31;17.13;;;10.68;;
24650;SDS011;12783;48.824;8.662;2023-05-21T10:39:00;15.07;;;11.43;;
24650;SDS011;12783;48.824;8.662;2023-05-21T10:41:30;15.27;;;10.50;;
24650;SDS011;12783;48.824;8.662;2023-05-21T10:56:37;14.35;;;10.43;;
24650;SDS011;12783;48.824;8.662;2023-05-21T11:02:14;13.98;;;9.88;;
24650;SDS011;12783;48.824;8.662;2023-05-21T11:04:43;12.23;;;9.82;;
24650;SDS011;12783;48.824;8.662;2023-05-21T11:07:11;16.42;;;10.00;;
24650;SDS011;12783;48.824;8.662;2023-05-21T11:09:38;13.98;;;9.70;;
24650;SDS011;12783;48.824;8.662;2023-05-21T11:12:05;14.63;;;10.05;;
24650;SDS011;12783;48.824;8.662;2023-05-21T11:14:36;14.00;;;10.32;;
24650;SDS011;12783;48.824;8.662;2023-05-21T11:19:36;11.48;;;9.40;;
24650;SDS011;12783;48.824;8.662;2023-05-21T11:22:08;12.95;;;9.15;;
24650;SDS011;12783;48.824;8.662;2023-05-21T11:24:45;12.30;;;10.07;;
24650;SDS011;12783;48.824;8.662;2023-05-21T11:27:29;16.23;;;9.88;;
24650;SDS011;12783;48.824;8.662;2023-05-21T11:32:38;12.45;;;9.63;;
24650;SDS011;12783;48.824;8.662;2023-05-21T11:35:26;13.35;;;10.02;;
24650;SDS011;12783;48.824;8.662;2023-05-21T11:37:53;12.73;;;10.65;;
24650;SDS011;12783;48.824;8.662;2023-05-21T11:40:24;13.20;;;10.20;;
24650;SDS011;12783;48.824;8.662;2023-05-21T11:42:53;21.85;;;10.23;;
24650;SDS011;12783;48.824;8.662;2023-05-21T11:45:22;15.55;;;9.32;;
24650;SDS011;12783;48.824;8.662;2023-05-21T11:47:53;12.50;;;9.02;;
24650;SDS011;12783;48.824;8.662;2023-05-21T11:50:21;16.92;;;10.82;;
24650;SDS011;12783;48.824;8.662;2023-05-21T11:52:49;14.50;;;10.02;;
24650;SDS011;12783;48.824;8.662;2023-05-21T11:55:20;21.52;;;10.13;;
24650;SDS011;12783;48.824;8.662;2023-05-21T11:57:50;12.63;;;9.73;;
24650;SDS011;12783;48.824;8.662;2023-05-21T12:00:19;18.83;;;10.70;;
24650;SDS011;12783;48.824;8.662;2023-05-21T12:02:49;14.63;;;9.98;;
24650;SDS011;12783;48.824;8.662;2023-05-21T12:05:18;12.90;;;10.07;;
24650;SDS011;12783;48.824;8.662;2023-05-21T12:07:46;12.68;;;10.02;;
24650;SDS011;12783;48.824;8.662;2023-05-21T12:10:15;14.75;;;9.75;;
24650;SDS011;12783;48.824;8.662;2023-05-21T12:12:45;13.43;;;9.82;;
24650;SDS011;12783;48.824;8.662;2023-05-21T12:15:21;12.85;;;9.40;;
24650;SDS011;12783;48.824;8.662;2023-05-21T12:17:50;13.20;;;8.88;;
24650;SDS011;12783;48.824;8.662;2023-05-21T12:20:18;10.65;;;8.82;;
24650;SDS011;12783;48.824;8.662;2023-05-21T12:22:47;16.90;;;9.75;;
24650;SDS011;12783;48.824;8.662;2023-05-21T12:25:19;11.65;;;9.55;;
24650;SDS011;12783;48.824;8.662;2023-05-21T12:27:47;14.95;;;9.25;;
24650;SDS011;12783;48.824;8.662;2023-05-21T12:30:17;13.43;;;9.73;;
24650;SDS011;12783;48.824;8.662;2023-05-21T12:32:45;12.35;;;9.48;;
24650;SDS011;12783;48.824;8.662;2023-05-21T12:35:20;11.35;;;8.40;;
24650;SDS011;12783;48.824;8.662;2023-05-21T12:37:49;11.48;;;9.10;;
24650;SDS011;12783;48.824;8.662;2023-05-21T12:40:17;10.35;;;7.97;;
24650;SDS011;12783;48.824;8.662;2023-05-21T12:42:44;11.75;;;8.73;;
24650;SDS011;12783;48.824;8.662;2023-05-21T12:45:12;13.25;;;9.77;;
24650;SDS011;12783;48.824;8.662;2023-05-21T12:47:39;10.45;;;8.45;;
24650;SDS011;12783;48.824;8.662;2023-05-21T12:50:06;11.27;;;8.80;;
24650;SDS011;12783;48.824;8.662;2023-05-21T12:52:38;15.73;;;8.95;;
24650;SDS011;12783;48.824;8.662;2023-05-21T12:55:08;12.50;;;9.15;;
24650;SDS011;12783;48.824;8.662;2023-05-21T12:57:38;13.23;;;9.23;;
24650;SDS011;12783;48.824;8.662;2023-05-21T13:00:05;12.55;;;9.65;;
24650;SDS011;12783;48.824;8.662;2023-05-21T13:02:34;12.48;;;9.50;;
24650;SDS011;12783;48.824;8.662;2023-05-21T13:05:09;12.13;;;9.75;;
24650;SDS011;12783;48.824;8.662;2023-05-21T13:10:13;11.27;;;8.15;;
24650;SDS011;12783;48.824;8.662;2023-05-21T13:12:42;12.07;;;8.02;;
24650;SDS011;12783;48.824;8.662;2023-05-21T13:15:10;10.65;;;8.15;;
24650;SDS011;12783;48.824;8.662;2023-05-21T13:17:37;13.30;;;8.82;;
24650;SDS011;12783;48.824;8.662;2023-05-21T13:20:08;10.07;;;7.93;;
24650;SDS011;12783;48.824;8.662;2023-05-21T13:22:41;10.55;;;7.80;;
24650;SDS011;12783;48.824;8.662;2023-05-21T13:25:13;10.30;;;8.10;;
24650;SDS011;12783;48.824;8.662;2023-05-21T13:27:43;12.90;;;7.22;;
24650;SDS011;12783;48.824;8.662;2023-05-21T13:30:11;9.90;;;6.57;;
24650;SDS011;12783;48.824;8.662;2023-05-21T13:32:39;8.43;;;7.50;;
24650;SDS011;12783;48.824;8.662;2023-05-21T13:35:07;9.95;;;7.03;;
24650;SDS011;12783;48.824;8.662;2023-05-21T13:37:37;9.65;;;7.40;;
24650;SDS011;12783;48.824;8.662;2023-05-21T13:40:06;9.48;;;7.63;;
24650;SDS011;12783;48.824;8.662;2023-05-21T13:42:36;9.32;;;7.38;;
24650;SDS011;12783;48.824;8.662;2023-05-21T13:45:08;8.13;;;6.68;;
24650;SDS011;12783;48.824;8.662;2023-05-21T13:47:37;11.90;;;7.20;;
24650;SDS011;12783;48.824;8.662;2023-05-21T13:50:06;11.48;;;6.75;;
24650;SDS011;12783;48.824;8.662;2023-05-21T13:52:34;8.60;;;6.82;;
24650;SDS011;12783;48.824;8.662;2023-05-21T13:55:02;8.60;;;6.47;;
24650;SDS011;12783;48.824;8.662;2023-05-21T13:57:30;9.48;;;6.70;;
24650;SDS011;12783;48.824;8.662;2023-05-21T13:59:57;8.35;;;7.25;;
24650;SDS011;12783;48.824;8.662;2023-05-21T14:02:25;9.57;;;8.02;;
24650;SDS011;12783;48.824;8.662;2023-05-21T14:04:52;9.50;;;7.60;;
24650;SDS011;12783;48.824;8.662;2023-05-21T14:07:19;10.73;;;7.90;;
24650;SDS011;12783;48.824;8.662;2023-05-21T14:09:47;10.18;;;8.18;;
24650;SDS011;12783;48.824;8.662;2023-05-21T14:12:14;10.63;;;8.32;;
24650;SDS011;12783;48.824;8.662;2023-05-21T14:14:42;9.88;;;7.13;;
24650;SDS011;12783;48.824;8.662;2023-05-21T14:17:08;8.50;;;6.95;;
24650;SDS011;12783;48.824;8.662;2023-05-21T14:19:35;11.55;;;7.90;;
24650;SDS011;12783;48.824;8.662;2023-05-21T14:22:02;9.65;;;7.50;;
24650;SDS011;12783;48.824;8.662;2023-05-21T14:24:29;10.27;;;7.45;;
24650;SDS011;12783;48.824;8.662;2023-05-21T14:26:56;12.55;;;7.97;;
24650;SDS011;12783;48.824;8.662;2023-05-21T14:29:23;10.15;;;7.60;;
24650;SDS011;12783;48.824;8.662;2023-05-21T14:31:50;10.05;;;7.28;;
24650;SDS011;12783;48.824;8.662;2023-05-21T14:34:17;9.77;;;7.88;;
24650;SDS011;12783;48.824;8.662;2023-05-21T14:36:44;9.25;;;7.25;;
24650;SDS011;12783;48.824;8.662;2023-05-21T14:39:11;8.38;;;7.18;;
24650;SDS011;12783;48.824;8.662;2023-05-21T14:41:38;9.13;;;7.38;;
24650;SDS011;12783;48.824;8.662;2023-05-21T14:44:05;9.40;;;7.38;;
24650;SDS011;12783;48.824;8.662;2023-05-21T14:46:32;10.85;;;8.00;;
24650;SDS011;12783;48.824;8.662;2023-05-21T14:48:59;9.73;;;7.75;;
24650;SDS011;12783;48.824;8.662;2023-05-21T14:51:26;8.13;;;6.85;;
24650;SDS011;12783;48.824;8.662;2023-05-21T14:53:53;8.70;;;7.00;;
24650;SDS011;12783;48.824;8.662;2023-05-21T14:56:22;8.63;;;6.78;;
24650;SDS011;12783;48.824;8.662;2023-05-21T14:58:52;8.88;;;6.50;;
24650;SDS011;12783;48.824;8.662;2023-05-21T15:01:19;8.55;;;6.75;;